South Rockwood, MI (48179)

7:56 AM EST on December 07, 2016 (GMT -0500)
Sylvania Minerals | | Change Station

Elev 587 ft 42.05 °N, 83.27 °W | Updated 10 minutes ago

Overcast
Overcast
30.8 °F
Feels Like 31 °F
N
3.0
Wind Variable Wind from SW
Gusts 12.0 mph

Today
High -- | Low -- °F
--% Chance of Precip.
Yesterday
High -- | Low -- °F
Precip. -- in
Pressure 30.01 in
Visibility 10.0 miles
Clouds Overcast 3100 ft
Windchill 31 °F
Dew Point 26 °F
Humidity 82%
Rainfall 0.00 in
Snow Depth Not available.
7:48 AM 5:01 PM
First Quarter, 52% visible
METAR KONZ 071233Z AUTO 24007KT 10SM OVC031 00/M04 A3001 RMK AO2 T10051045
Pressure 30.01 in
Visibility 10.0 miles
Clouds Overcast 3100 ft
Windchill 31 °F
Dew Point 26 °F
Humidity 82%
Rainfall 0.00 in
Snow Depth Not available.
7:48 AM 5:01 PM
First Quarter, 52% visible
METAR KONZ 071233Z AUTO 24007KT 10SM OVC031 00/M04 A3001 RMK AO2 T10051045

10-Day Weather Forecast

Almanac

Astronomy

Dec. 07, 2016 Rise Set
Actual Time
Civil Twilight
Nautical Twilight
Astronomical Twilight
Moon
Length of Visible Light
Length of Day
Tomorrow will be .
, % of the Moon is Illuminated

Today's Extremes

State Highs State Lows

Community

WunderPhotos

Upload Photos

1,956,112 photos uploaded!

WunderBlog® & News

Nearby

Air Quality

  Air Quality AQ Index Pollutant
Not available.

Snow Depth

Station Depth Elevation

Earthquake Activity

City Distance Mag. Time & Date
Minimum magnitude displayed is 2.5.

Coastal Water Temperatures

Place Temperature

Stations

Nearby Weather Stations

Station Location Temp. Windchill Dew Point Humidity Wind Precip. Elev Updated Type
                   

Watches & Warnings

There are currently no watches in effect.